Historique des mesures à Cassis (13260), France
Quotidien Résumé Fevrier 7, 2017 Unités:  Métrique    US   Métrique/US
« Précédent (Jour)
Suivant (Jour) »
Quotidien Hebdomadaire Mensuel Annuel Période au choix
  Maximum: Minimum: Moyenne:
Température: TemperatureC °C 7.6 °C 10.5 °C
Point de rosée: DewpointC °C 1.9 °C 3.7 °C
Humidité: Humidity % 56 % 59 %
Vitesse du vent: 0 km/h 0 km/h 10.3 km/h
Rafales: 0 km/h - -
Vent:- - SSE
Pression: PressurehPa hPa 1008.7 hPa -
Précipitations: 0.0 mm    
Historical Graphs
 
 
Mesures pour : Fevrier 7, 2017
Heure Temperature Point de rosée Pression Vent Vitesse du vent Rafales Humidité Pluie (par heure) Conditions
TemperatureC °C DewpointC °C PressurehPa hPa Calm     Humidity % HourlyPrecipMM mm SoftwareType W/m2
00:11 8.9 °C 2.0 °C 1008.7 hPa North 19.2 km/h 19.2 km/h 62 % 0.0 mm open2300-1.11 W/m2
01:10 8.4 °C 2.2 °C 1009.4 hPa NW 43.5 km/h 43.5 km/h 65 % 0.0 mm open2300-1.11 W/m2
02:11 8.8 °C 2.1 °C 1010.0 hPa ENE 12.2 km/h 14.5 km/h 63 % 0.0 mm open2300-1.11 W/m2
03:10 8.5 °C 2.1 °C 1010.4 hPa Calm   4.7 km/h 64 % 0.0 mm open2300-1.11 W/m2
04:11 8.2 °C 2.0 °C 1010.4 hPa Calm     65 % 0.0 mm open2300-1.11 W/m2
05:10 7.9 °C 1.9 °C 1010.0 hPa Calm   2.3 km/h 66 % 0.0 mm open2300-1.11 W/m2
06:11 7.6 °C 2.1 °C 1010.7 hPa Calm   6.4 km/h 68 % 0.0 mm open2300-1.11 W/m2
07:10 8.2 °C 2.0 °C 1010.4 hPa NW 33.6 km/h 33.6 km/h 65 % 0.0 mm open2300-1.11 W/m2
08:11 8.5 °C 2.1 °C 1011.4 hPa Calm     64 % 0.0 mm open2300-1.11 W/m2
09:10 8.6 °C 2.2 °C 1010.7 hPa NNE 2.3 km/h 6.9 km/h 64 % 0.0 mm open2300-1.11 W/m2
10:11 9.6 °C 2.7 °C 1011.1 hPa NNW 5.1 km/h 6.9 km/h 62 % 0.0 mm open2300-1.11 W/m2
11:10 10.9 °C 3.4 °C 1011.1 hPa Calm   9.8 km/h 60 % 0.0 mm open2300-1.11 W/m2
12:11 11.9 °C 4.2 °C 1011.4 hPa Calm     59 % 0.0 mm open2300-1.11 W/m2
13:10 13.1 °C 5.2 °C 1011.1 hPa Calm     59 % 0.0 mm open2300-1.11 W/m2
14:11 13.9 °C 5.3 °C 1010.4 hPa NE 5.1 km/h 7.6 km/h 56 % 0.0 mm open2300-1.11 W/m2
15:10 13.6 °C 5.7 °C 1010.4 hPa NNW 21.6 km/h 21.6 km/h 59 % 0.0 mm open2300-1.11 W/m2
16:11 13.8 °C 5.9 °C 1010.4 hPa NW 11.6 km/h 15.6 km/h 59 % 0.0 mm open2300-1.11 W/m2
17:10 14.3 °C 6.7 °C 1010.7 hPa North 10.3 km/h 44.6 km/h 60 % 0.0 mm open2300-1.11 W/m2
18:11 13.9 °C 6.1 °C 1010.7 hPa NW 6.4 km/h 14.5 km/h 59 % 0.0 mm open2300-1.11 W/m2
19:10 13.8 °C 5.4 °C 1010.7 hPa NNE 6.9 km/h 15 km/h 57 % 0.0 mm open2300-1.11 W/m2
20:11 12.9 °C 5.6 °C 1010.4 hPa North 9.8 km/h 10.9 km/h 61 % 0.0 mm open2300-1.11 W/m2
21:10 12.5 °C 5.4 °C 1009.7 hPa North 6.9 km/h 18.7 km/h 62 % 0.0 mm open2300-1.11 W/m2
22:11 12.4 °C 5.1 °C 1009.4 hPa NW 49.7 km/h 49.7 km/h 61 % 0.0 mm open2300-1.11 W/m2
23:10 11.9 °C 5.1 °C 1009.7 hPa North 12.2 km/h 31.4 km/h 63 % 0.0 mm open2300-1.11 W/m2
Observations météo à CASSIS
WU-History script by Weather Underground - 1 mb